Bristol, VA

12:17 PM EDT on September 05, 2015 (GMT -0400)
Poor Valley | | Change Station
CLOSE
Current Station
Personal Weather Station
Location: Saltville, VA
Elevation: 1850 ft
Nearby Weather Stations

Elev 1850 ft 36.87 °N, 81.85 °W | Updated 2 minutes ago

Partly Cloudy
Partly Cloudy
78.5 °F
Feels Like 80 °F
N
2.0
Wind Variable Wind from SE
Gusts 2.0 mph

Today
High -- | Low -- °F
--% Chance of Precip.
Yesterday
High -- | Low -- °F
Precip. -- in
7:01 AM 7:50 PM
Waning Gibbous, 47% visible
Pressure 30.28 in
Visibility 10.0 miles
Clouds Scattered Clouds 2400 ft
Heat Index 80 °F
Dew Point 65 °F
Humidity 63%
Rainfall 0.00 in
Snow Depth Not available.
UV 7 out of 12
Pollen 8.70 out of 12
Air Quality Not available.
Flu Activity Not available.
METAR KJFZ 051555Z AUTO 13010G14KT 10SM SCT024 24/M02 A3028 RMK AO2 T02401020
Pressure 30.28 in
Visibility 10.0 miles
Clouds Scattered Clouds 2400 ft
Heat Index 80 °F
Dew Point 65 °F
Humidity 63%
Rainfall 0.00 in
Snow Depth Not available.
UV 7 out of 12
Pollen 8.70 out of 12
Air Quality Not available.
Flu Activity Not available.
METAR KJFZ 051555Z AUTO 13010G14KT 10SM SCT024 24/M02 A3028 RMK AO2 T02401020

10-Day Weather Forecast

×

Almanac

Astronomy

Sep. 05, 2015 Rise Set
Actual Time
Civil Twilight
Nautical Twilight
Astronomical Twilight
Moon
Length of Visible Light
Length of Day
Tomorrow will be .
, % of the Moon is Illuminated

Today's Extremes

State Highs State Lows

Community

WunderPhotos

Upload Photos

1,852,495 photos uploaded!

WunderBlogs® & News

Nearby

Air Quality

  Air Quality AQ Index Pollutant
Not available.

Snow Depth

Station Depth Elevation

Earthquake Activity

City Distance Mag. Time & Date
Minimum magnitude displayed is 2.5.

Coastal Water Temperatures

Place Temperature

Stations

Nearby Weather Stations

Station Location Temp. Windchill Dew Point Humidity Wind Precip. Elev Updated Type